sensor_id;sensor_type;location;lat;lon;timestamp;P1;durP1;ratioP1;P2;durP2;ratioP2
53618;SDS011;68717;53.040;18.488;2023-05-01T00:00:00;16.42;;;7.68;;
53618;SDS011;68717;53.040;18.488;2023-05-01T00:00:35;16.02;;;7.47;;
53618;SDS011;68717;53.040;18.488;2023-05-01T00:00:58;14.38;;;7.40;;
53618;SDS011;68717;53.040;18.488;2023-05-01T00:01:11;14.55;;;7.40;;
53618;SDS011;68717;53.040;18.488;2023-05-01T00:01:24;14.98;;;7.32;;
53618;SDS011;68717;53.040;18.488;2023-05-01T00:01:37;14.35;;;7.10;;
53618;SDS011;68717;53.040;18.488;2023-05-01T00:01:49;13.45;;;7.35;;
53618;SDS011;68717;53.040;18.488;2023-05-01T00:02:02;13.60;;;7.45;;
53618;SDS011;68717;53.040;18.488;2023-05-01T00:02:15;14.00;;;7.50;;
53618;SDS011;68717;53.040;18.488;2023-05-01T00:02:28;14.65;;;7.60;;
53618;SDS011;68717;53.040;18.488;2023-05-01T00:02:41;15.27;;;7.53;;
53618;SDS011;68717;53.040;18.488;2023-05-01T00:02:54;15.35;;;7.60;;
53618;SDS011;68717;53.040;18.488;2023-05-01T00:03:07;16.55;;;7.68;;
53618;SDS011;68717;53.040;18.488;2023-05-01T00:03:19;15.50;;;7.50;;
53618;SDS011;68717;53.040;18.488;2023-05-01T00:03:32;14.88;;;7.47;;
53618;SDS011;68717;53.040;18.488;2023-05-01T00:03:45;15.65;;;7.88;;
53618;SDS011;68717;53.040;18.488;2023-05-01T00:03:59;15.07;;;7.72;;
53618;SDS011;68717;53.040;18.488;2023-05-01T00:04:12;15.48;;;7.57;;
53618;SDS011;68717;53.040;18.488;2023-05-01T00:04:25;17.00;;;7.75;;
53618;SDS011;68717;53.040;18.488;2023-05-01T00:04:37;17.55;;;8.10;;
53618;SDS011;68717;53.040;18.488;2023-05-01T00:04:50;16.70;;;8.35;;
53618;SDS011;68717;53.040;18.488;2023-05-01T00:05:03;17.02;;;8.40;;
53618;SDS011;68717;53.040;18.488;2023-05-01T00:05:17;17.75;;;8.80;;
53618;SDS011;68717;53.040;18.488;2023-05-01T00:05:31;17.83;;;8.90;;
53618;SDS011;68717;53.040;18.488;2023-05-01T00:05:44;18.25;;;8.60;;
53618;SDS011;68717;53.040;18.488;2023-05-01T00:06:00;19.98;;;8.57;;
53618;SDS011;68717;53.040;18.488;2023-05-01T00:06:15;19.67;;;8.50;;
53618;SDS011;68717;53.040;18.488;2023-05-01T00:06:27;18.40;;;8.65;;
53618;SDS011;68717;53.040;18.488;2023-05-01T00:06:41;17.67;;;8.70;;
53618;SDS011;68717;53.040;18.488;2023-05-01T00:06:54;16.98;;;8.57;;
53618;SDS011;68717;53.040;18.488;2023-05-01T00:07:07;17.85;;;8.50;;
53618;SDS011;68717;53.040;18.488;2023-05-01T00:07:19;19.80;;;8.75;;
53618;SDS011;68717;53.040;18.488;2023-05-01T00:07:32;19.27;;;8.88;;
53618;SDS011;68717;53.040;18.488;2023-05-01T00:07:44;17.65;;;8.50;;
53618;SDS011;68717;53.040;18.488;2023-05-01T00:07:57;17.40;;;8.68;;
53618;SDS011;68717;53.040;18.488;2023-05-01T00:08:09;18.23;;;8.68;;
53618;SDS011;68717;53.040;18.488;2023-05-01T00:08:23;18.48;;;8.60;;
53618;SDS011;68717;53.040;18.488;2023-05-01T00:08:35;19.30;;;8.80;;
53618;SDS011;68717;53.040;18.488;2023-05-01T00:08:48;18.73;;;8.90;;
53618;SDS011;68717;53.040;18.488;2023-05-01T00:09:01;19.13;;;8.75;;
53618;SDS011;68717;53.040;18.488;2023-05-01T00:09:13;19.27;;;9.13;;
53618;SDS011;68717;53.040;18.488;2023-05-01T00:09:26;19.98;;;9.43;;
53618;SDS011;68717;53.040;18.488;2023-05-01T00:09:39;20.35;;;9.13;;
53618;SDS011;68717;53.040;18.488;2023-05-01T00:09:52;17.80;;;8.80;;
53618;SDS011;68717;53.040;18.488;2023-05-01T00:10:06;17.67;;;8.73;;
53618;SDS011;68717;53.040;18.488;2023-05-01T00:10:19;18.63;;;8.52;;
53618;SDS011;68717;53.040;18.488;2023-05-01T00:10:33;20.60;;;8.60;;
53618;SDS011;68717;53.040;18.488;2023-05-01T00:10:47;20.08;;;8.57;;
53618;SDS011;68717;53.040;18.488;2023-05-01T00:11:01;18.46;;;8.90;;
53618;SDS011;68717;53.040;18.488;2023-05-01T00:11:14;17.27;;;9.00;;
53618;SDS011;68717;53.040;18.488;2023-05-01T00:11:27;17.30;;;8.50;;
53618;SDS011;68717;53.040;18.488;2023-05-01T00:11:40;17.75;;;8.52;;
53618;SDS011;68717;53.040;18.488;2023-05-01T00:11:53;17.60;;;9.15;;
53618;SDS011;68717;53.040;18.488;2023-05-01T00:12:05;18.17;;;9.32;;
53618;SDS011;68717;53.040;18.488;2023-05-01T00:12:18;17.95;;;9.05;;
53618;SDS011;68717;53.040;18.488;2023-05-01T00:12:30;18.30;;;8.93;;
53618;SDS011;68717;53.040;18.488;2023-05-01T00:12:43;19.23;;;9.13;;
53618;SDS011;68717;53.040;18.488;2023-05-01T00:12:57;20.38;;;9.25;;
53618;SDS011;68717;53.040;18.488;2023-05-01T00:13:09;18.75;;;9.07;;
53618;SDS011;68717;53.040;18.488;2023-05-01T00:13:22;18.55;;;9.02;;
53618;SDS011;68717;53.040;18.488;2023-05-01T00:13:35;18.40;;;9.25;;
53618;SDS011;68717;53.040;18.488;2023-05-01T00:13:48;18.08;;;9.50;;
53618;SDS011;68717;53.040;18.488;2023-05-01T00:14:00;18.17;;;9.50;;
53618;SDS011;68717;53.040;18.488;2023-05-01T00:14:13;18.98;;;9.63;;
53618;SDS011;68717;53.040;18.488;2023-05-01T00:14:25;20.10;;;9.55;;
53618;SDS011;68717;53.040;18.488;2023-05-01T00:14:40;19.55;;;9.48;;
53618;SDS011;68717;53.040;18.488;2023-05-01T00:14:53;17.55;;;9.45;;
53618;SDS011;68717;53.040;18.488;2023-05-01T00:15:06;19.70;;;10.05;;
53618;SDS011;68717;53.040;18.488;2023-05-01T00:15:20;21.75;;;10.18;;
53618;SDS011;68717;53.040;18.488;2023-05-01T00:15:32;19.40;;;9.52;;
53618;SDS011;68717;53.040;18.488;2023-05-01T00:15:45;19.08;;;9.40;;
53618;SDS011;68717;53.040;18.488;2023-05-01T00:15:58;21.02;;;9.60;;
53618;SDS011;68717;53.040;18.488;2023-05-01T00:16:11;20.48;;;9.57;;
53618;SDS011;68717;53.040;18.488;2023-05-01T00:16:25;22.08;;;9.70;;
53618;SDS011;68717;53.040;18.488;2023-05-01T00:16:37;21.50;;;9.50;;
53618;SDS011;68717;53.040;18.488;2023-05-01T00:16:50;20.23;;;9.70;;
53618;SDS011;68717;53.040;18.488;2023-05-01T00:17:03;20.90;;;9.85;;
53618;SDS011;68717;53.040;18.488;2023-05-01T00:17:17;21.15;;;9.60;;
53618;SDS011;68717;53.040;18.488;2023-05-01T00:17:29;20.95;;;10.00;;
53618;SDS011;68717;53.040;18.488;2023-05-01T00:17:42;19.80;;;9.88;;
53618;SDS011;68717;53.040;18.488;2023-05-01T00:17:56;19.45;;;9.70;;
53618;SDS011;68717;53.040;18.488;2023-05-01T00:18:09;19.40;;;9.65;;
53618;SDS011;68717;53.040;18.488;2023-05-01T00:18:22;19.95;;;9.80;;
53618;SDS011;68717;53.040;18.488;2023-05-01T00:18:34;21.92;;;10.07;;
53618;SDS011;68717;53.040;18.488;2023-05-01T00:18:47;22.35;;;9.93;;
53618;SDS011;68717;53.040;18.488;2023-05-01T00:18:59;21.80;;;9.73;;
53618;SDS011;68717;53.040;18.488;2023-05-01T00:19:12;20.88;;;9.70;;
53618;SDS011;68717;53.040;18.488;2023-05-01T00:19:29;21.17;;;9.88;;
53618;SDS011;68717;53.040;18.488;2023-05-01T00:19:42;21.05;;;10.07;;
53618;SDS011;68717;53.040;18.488;2023-05-01T00:19:54;20.48;;;10.05;;
53618;SDS011;68717;53.040;18.488;2023-05-01T00:20:08;19.88;;;10.20;;
53618;SDS011;68717;53.040;18.488;2023-05-01T00:20:21;21.70;;;10.90;;
53618;SDS011;68717;53.040;18.488;2023-05-01T00:20:39;25.38;;;11.35;;
53618;SDS011;68717;53.040;18.488;2023-05-01T00:20:52;26.05;;;11.43;;
53618;SDS011;68717;53.040;18.488;2023-05-01T00:21:05;26.05;;;11.80;;
53618;SDS011;68717;53.040;18.488;2023-05-01T00:21:18;25.02;;;11.70;;
53618;SDS011;68717;53.040;18.488;2023-05-01T00:21:30;25.10;;;11.45;;
53618;SDS011;68717;53.040;18.488;2023-05-01T00:21:43;25.98;;;11.35;;
53618;SDS011;68717;53.040;18.488;2023-05-01T00:21:56;23.52;;;11.18;;
53618;SDS011;68717;53.040;18.488;2023-05-01T00:22:09;22.75;;;11.30;;
53618;SDS011;68717;53.040;18.488;2023-05-01T00:22:22;24.77;;;11.52;;
53618;SDS011;68717;53.040;18.488;2023-05-01T00:22:35;24.23;;;11.02;;
53618;SDS011;68717;53.040;18.488;2023-05-01T00:22:48;23.25;;;10.80;;
53618;SDS011;68717;53.040;18.488;2023-05-01T00:23:00;24.23;;;10.65;;
53618;SDS011;68717;53.040;18.488;2023-05-01T00:23:13;25.00;;;10.77;;
53618;SDS011;68717;53.040;18.488;2023-05-01T00:23:25;22.55;;;10.73;;
53618;SDS011;68717;53.040;18.488;2023-05-01T00:23:38;22.63;;;10.55;;
53618;SDS011;68717;53.040;18.488;2023-05-01T00:23:52;22.13;;;10.50;;
53618;SDS011;68717;53.040;18.488;2023-05-01T00:24:05;21.38;;;10.38;;
53618;SDS011;68717;53.040;18.488;2023-05-01T00:24:17;20.52;;;10.23;;
53618;SDS011;68717;53.040;18.488;2023-05-01T00:24:30;20.55;;;10.02;;
53618;SDS011;68717;53.040;18.488;2023-05-01T00:24:43;21.13;;;10.13;;
53618;SDS011;68717;53.040;18.488;2023-05-01T00:24:56;19.92;;;9.93;;
53618;SDS011;68717;53.040;18.488;2023-05-01T00:25:08;20.20;;;10.07;;
53618;SDS011;68717;53.040;18.488;2023-05-01T00:25:22;20.60;;;9.95;;
53618;SDS011;68717;53.040;18.488;2023-05-01T00:25:35;19.80;;;9.80;;
53618;SDS011;68717;53.040;18.488;2023-05-01T00:25:47;16.35;;;9.60;;
53618;SDS011;68717;53.040;18.488;2023-05-01T00:26:00;16.95;;;9.13;;
53618;SDS011;68717;53.040;18.488;2023-05-01T00:26:13;18.08;;;8.95;;
53618;SDS011;68717;53.040;18.488;2023-05-01T00:26:25;18.35;;;9.20;;
53618;SDS011;68717;53.040;18.488;2023-05-01T00:26:41;19.38;;;9.40;;
53618;SDS011;68717;53.040;18.488;2023-05-01T00:26:55;18.70;;;9.20;;
53618;SDS011;68717;53.040;18.488;2023-05-01T00:27:07;18.40;;;9.13;;
53618;SDS011;68717;53.040;18.488;2023-05-01T00:27:20;18.17;;;9.05;;
53618;SDS011;68717;53.040;18.488;2023-05-01T00:27:32;16.80;;;9.00;;
53618;SDS011;68717;53.040;18.488;2023-05-01T00:27:45;16.27;;;8.85;;
53618;SDS011;68717;53.040;18.488;2023-05-01T00:27:59;17.55;;;8.90;;
53618;SDS011;68717;53.040;18.488;2023-05-01T00:28:13;18.90;;;8.75;;
53618;SDS011;68717;53.040;18.488;2023-05-01T00:28:25;19.20;;;8.70;;
53618;SDS011;68717;53.040;18.488;2023-05-01T00:28:38;18.73;;;8.85;;
53618;SDS011;68717;53.040;18.488;2023-05-01T00:28:51;19.75;;;8.80;;
53618;SDS011;68717;53.040;18.488;2023-05-01T00:29:03;18.70;;;8.35;;
53618;SDS011;68717;53.040;18.488;2023-05-01T00:29:16;16.48;;;8.00;;
53618;SDS011;68717;53.040;18.488;2023-05-01T00:29:28;16.23;;;8.02;;
53618;SDS011;68717;53.040;18.488;2023-05-01T00:29:42;16.15;;;8.00;;
53618;SDS011;68717;53.040;18.488;2023-05-01T00:29:54;16.00;;;7.88;;
53618;SDS011;68717;53.040;18.488;2023-05-01T00:30:07;15.30;;;7.55;;
53618;SDS011;68717;53.040;18.488;2023-05-01T00:30:21;15.25;;;7.40;;
53618;SDS011;68717;53.040;18.488;2023-05-01T00:30:33;16.33;;;7.65;;
53618;SDS011;68717;53.040;18.488;2023-05-01T00:30:46;16.23;;;7.40;;
53618;SDS011;68717;53.040;18.488;2023-05-01T00:30:59;14.50;;;7.32;;
53618;SDS011;68717;53.040;18.488;2023-05-01T00:31:12;14.00;;;6.90;;
53618;SDS011;68717;53.040;18.488;2023-05-01T00:31:25;14.45;;;6.90;;
53618;SDS011;68717;53.040;18.488;2023-05-01T00:31:38;17.23;;;7.38;;
53618;SDS011;68717;53.040;18.488;2023-05-01T00:31:53;16.27;;;7.25;;
53618;SDS011;68717;53.040;18.488;2023-05-01T00:32:06;16.85;;;7.45;;
53618;SDS011;68717;53.040;18.488;2023-05-01T00:32:19;17.33;;;7.18;;
53618;SDS011;68717;53.040;18.488;2023-05-01T00:32:31;15.05;;;6.82;;
53618;SDS011;68717;53.040;18.488;2023-05-01T00:32:45;16.40;;;7.07;;
53618;SDS011;68717;53.040;18.488;2023-05-01T00:32:58;16.23;;;7.18;;
53618;SDS011;68717;53.040;18.488;2023-05-01T00:33:12;13.65;;;6.93;;
53618;SDS011;68717;53.040;18.488;2023-05-01T00:33:24;14.80;;;7.13;;
53618;SDS011;68717;53.040;18.488;2023-05-01T00:33:37;16.52;;;7.35;;
53618;SDS011;68717;53.040;18.488;2023-05-01T00:33:49;15.52;;;7.18;;
53618;SDS011;68717;53.040;18.488;2023-05-01T00:34:02;14.35;;;6.93;;
53618;SDS011;68717;53.040;18.488;2023-05-01T00:34:16;12.68;;;6.70;;
53618;SDS011;68717;53.040;18.488;2023-05-01T00:34:28;14.20;;;6.88;;
53618;SDS011;68717;53.040;18.488;2023-05-01T00:34:41;16.08;;;6.95;;
53618;SDS011;68717;53.040;18.488;2023-05-01T00:34:54;16.55;;;6.97;;
53618;SDS011;68717;53.040;18.488;2023-05-01T00:35:08;16.58;;;7.00;;
53618;SDS011;68717;53.040;18.488;2023-05-01T00:35:21;15.57;;;6.93;;
53618;SDS011;68717;53.040;18.488;2023-05-01T00:35:33;15.25;;;7.03;;
53618;SDS011;68717;53.040;18.488;2023-05-01T00:35:48;15.15;;;7.35;;
53618;SDS011;68717;53.040;18.488;2023-05-01T00:36:02;14.70;;;7.50;;
53618;SDS011;68717;53.040;18.488;2023-05-01T00:36:15;14.90;;;7.35;;
53618;SDS011;68717;53.040;18.488;2023-05-01T00:36:28;17.13;;;7.40;;
53618;SDS011;68717;53.040;18.488;2023-05-01T00:36:40;18.23;;;7.63;;
53618;SDS011;68717;53.040;18.488;2023-05-01T00:36:53;17.65;;;7.82;;
53618;SDS011;68717;53.040;18.488;2023-05-01T00:37:07;16.73;;;8.10;;
53618;SDS011;68717;53.040;18.488;2023-05-01T00:37:19;16.52;;;8.15;;
53618;SDS011;68717;53.040;18.488;2023-05-01T00:37:32;17.42;;;8.30;;
53618;SDS011;68717;53.040;18.488;2023-05-01T00:37:44;16.83;;;8.05;;
53618;SDS011;68717;53.040;18.488;2023-05-01T00:37:57;16.35;;;7.72;;
53618;SDS011;68717;53.040;18.488;2023-05-01T00:38:10;17.10;;;7.53;;
53618;SDS011;68717;53.040;18.488;2023-05-01T00:38:23;17.17;;;7.50;;
53618;SDS011;68717;53.040;18.488;2023-05-01T00:38:36;16.38;;;7.70;;
53618;SDS011;68717;53.040;18.488;2023-05-01T00:38:49;16.13;;;7.78;;
53618;SDS011;68717;53.040;18.488;2023-05-01T00:39:02;16.60;;;8.00;;
53618;SDS011;68717;53.040;18.488;2023-05-01T00:39:14;17.70;;;7.82;;
53618;SDS011;68717;53.040;18.488;2023-05-01T00:39:27;18.30;;;7.80;;
53618;SDS011;68717;53.040;18.488;2023-05-01T00:39:40;17.92;;;7.63;;
53618;SDS011;68717;53.040;18.488;2023-05-01T00:39:52;18.33;;;7.80;;
53618;SDS011;68717;53.040;18.488;2023-05-01T00:40:07;17.17;;;7.90;;
53618;SDS011;68717;53.040;18.488;2023-05-01T00:40:20;16.48;;;8.10;;
53618;SDS011;68717;53.040;18.488;2023-05-01T00:40:40;16.13;;;7.93;;
53618;SDS011;68717;53.040;18.488;2023-05-01T00:40:53;16.90;;;7.75;;
53618;SDS011;68717;53.040;18.488;2023-05-01T00:41:05;15.68;;;7.82;;
53618;SDS011;68717;53.040;18.488;2023-05-01T00:41:18;14.63;;;7.45;;
53618;SDS011;68717;53.040;18.488;2023-05-01T00:41:32;14.35;;;7.00;;
53618;SDS011;68717;53.040;18.488;2023-05-01T00:41:45;14.55;;;7.10;;
53618;SDS011;68717;53.040;18.488;2023-05-01T00:41:57;14.77;;;7.32;;
53618;SDS011;68717;53.040;18.488;2023-05-01T00:42:10;15.80;;;7.53;;
53618;SDS011;68717;53.040;18.488;2023-05-01T00:42:23;15.23;;;7.72;;
53618;SDS011;68717;53.040;18.488;2023-05-01T00:42:35;15.18;;;7.57;;
53618;SDS011;68717;53.040;18.488;2023-05-01T00:42:50;15.70;;;7.25;;
53618;SDS011;68717;53.040;18.488;2023-05-01T00:43:03;15.98;;;7.13;;
53618;SDS011;68717;53.040;18.488;2023-05-01T00:43:16;17.38;;;7.20;;
53618;SDS011;68717;53.040;18.488;2023-05-01T00:43:28;17.55;;;7.03;;
53618;SDS011;68717;53.040;18.488;2023-05-01T00:43:41;16.17;;;7.20;;
53618;SDS011;68717;53.040;18.488;2023-05-01T00:43:54;15.32;;;7.43;;
53618;SDS011;68717;53.040;18.488;2023-05-01T00:44:06;16.08;;;7.10;;
53618;SDS011;68717;53.040;18.488;2023-05-01T00:44:19;16.63;;;7.07;;
53618;SDS011;68717;53.040;18.488;2023-05-01T00:44:33;15.50;;;7.10;;
53618;SDS011;68717;53.040;18.488;2023-05-01T00:44:45;15.63;;;7.28;;
53618;SDS011;68717;53.040;18.488;2023-05-01T00:44:58;16.70;;;7.60;;
53618;SDS011;68717;53.040;18.488;2023-05-01T00:45:11;15.98;;;7.55;;
53618;SDS011;68717;53.040;18.488;2023-05-01T00:45:23;16.23;;;7.35;;
53618;SDS011;68717;53.040;18.488;2023-05-01T00:45:36;16.30;;;7.47;;
53618;SDS011;68717;53.040;18.488;2023-05-01T00:45:49;18.17;;;7.78;;
53618;SDS011;68717;53.040;18.488;2023-05-01T00:46:03;16.80;;;7.40;;
53618;SDS011;68717;53.040;18.488;2023-05-01T00:46:17;15.20;;;7.10;;
53618;SDS011;68717;53.040;18.488;2023-05-01T00:46:30;16.27;;;7.28;;
53618;SDS011;68717;53.040;18.488;2023-05-01T00:46:45;16.27;;;7.13;;
53618;SDS011;68717;53.040;18.488;2023-05-01T00:46:57;16.00;;;7.40;;
53618;SDS011;68717;53.040;18.488;2023-05-01T00:47:13;16.85;;;7.90;;
53618;SDS011;68717;53.040;18.488;2023-05-01T00:47:27;17.63;;;7.70;;
53618;SDS011;68717;53.040;18.488;2023-05-01T00:47:40;17.70;;;7.60;;
53618;SDS011;68717;53.040;18.488;2023-05-01T00:47:52;15.80;;;7.32;;
53618;SDS011;68717;53.040;18.488;2023-05-01T00:48:05;15.77;;;7.28;;
53618;SDS011;68717;53.040;18.488;2023-05-01T00:48:18;16.67;;;7.65;;
53618;SDS011;68717;53.040;18.488;2023-05-01T00:48:30;16.48;;;7.82;;
53618;SDS011;68717;53.040;18.488;2023-05-01T00:48:44;16.00;;;7.90;;
53618;SDS011;68717;53.040;18.488;2023-05-01T00:48:57;16.77;;;7.93;;
53618;SDS011;68717;53.040;18.488;2023-05-01T00:49:09;16.52;;;7.85;;
53618;SDS011;68717;53.040;18.488;2023-05-01T00:49:22;17.15;;;8.02;;
53618;SDS011;68717;53.040;18.488;2023-05-01T00:49:35;17.25;;;7.95;;
53618;SDS011;68717;53.040;18.488;2023-05-01T00:49:48;16.27;;;7.97;;
53618;SDS011;68717;53.040;18.488;2023-05-01T00:50:02;16.35;;;8.00;;
53618;SDS011;68717;53.040;18.488;2023-05-01T00:50:16;15.77;;;7.97;;
53618;SDS011;68717;53.040;18.488;2023-05-01T00:50:29;16.13;;;8.15;;
53618;SDS011;68717;53.040;18.488;2023-05-01T00:50:42;16.13;;;8.15;;
53618;SDS011;68717;53.040;18.488;2023-05-01T00:50:56;15.40;;;8.20;;
53618;SDS011;68717;53.040;18.488;2023-05-01T00:51:11;16.42;;;8.70;;
53618;SDS011;68717;53.040;18.488;2023-05-01T00:51:25;19.20;;;9.05;;
53618;SDS011;68717;53.040;18.488;2023-05-01T00:51:41;20.00;;;8.75;;
53618;SDS011;68717;53.040;18.488;2023-05-01T00:51:54;19.17;;;8.63;;
53618;SDS011;68717;53.040;18.488;2023-05-01T00:52:07;19.25;;;8.98;;
53618;SDS011;68717;53.040;18.488;2023-05-01T00:52:20;20.30;;;10.07;;
53618;SDS011;68717;53.040;18.488;2023-05-01T00:52:35;22.63;;;11.02;;
53618;SDS011;68717;53.040;18.488;2023-05-01T00:52:48;23.58;;;10.88;;
53618;SDS011;68717;53.040;18.488;2023-05-01T00:53:01;22.50;;;11.00;;
53618;SDS011;68717;53.040;18.488;2023-05-01T00:53:15;21.40;;;11.02;;
53618;SDS011;68717;53.040;18.488;2023-05-01T00:53:27;21.33;;;10.65;;
53618;SDS011;68717;53.040;18.488;2023-05-01T00:53:40;22.33;;;10.82;;
53618;SDS011;68717;53.040;18.488;2023-05-01T00:53:54;22.65;;;11.02;;
53618;SDS011;68717;53.040;18.488;2023-05-01T00:54:07;23.45;;;11.60;;
53618;SDS011;68717;53.040;18.488;2023-05-01T00:54:21;22.95;;;11.80;;
53618;SDS011;68717;53.040;18.488;2023-05-01T00:54:36;24.70;;;11.75;;
53618;SDS011;68717;53.040;18.488;2023-05-01T00:54:49;26.90;;;11.90;;
53618;SDS011;68717;53.040;18.488;2023-05-01T00:55:03;25.98;;;12.10;;
53618;SDS011;68717;53.040;18.488;2023-05-01T00:55:17;24.63;;;12.07;;
53618;SDS011;68717;53.040;18.488;2023-05-01T00:55:30;24.45;;;12.07;;
53618;SDS011;68717;53.040;18.488;2023-05-01T00:55:44;25.27;;;12.02;;
53618;SDS011;68717;53.040;18.488;2023-05-01T00:55:57;26.83;;;12.27;;
53618;SDS011;68717;53.040;18.488;2023-05-01T00:56:11;27.02;;;12.77;;
53618;SDS011;68717;53.040;18.488;2023-05-01T00:56:25;26.23;;;13.00;;
53618;SDS011;68717;53.040;18.488;2023-05-01T00:56:38;25.00;;;13.02;;
53618;SDS011;68717;53.040;18.488;2023-05-01T00:56:51;24.45;;;12.90;;
53618;SDS011;68717;53.040;18.488;2023-05-01T00:57:04;23.80;;;12.30;;
53618;SDS011;68717;53.040;18.488;2023-05-01T00:57:18;24.27;;;12.43;;
53618;SDS011;68717;53.040;18.488;2023-05-01T00:57:32;23.98;;;12.60;;
53618;SDS011;68717;53.040;18.488;2023-05-01T00:57:44;23.90;;;12.57;;
53618;SDS011;68717;53.040;18.488;2023-05-01T00:57:58;27.77;;;13.18;;
53618;SDS011;68717;53.040;18.488;2023-05-01T00:58:12;29.58;;;13.27;;
53618;SDS011;68717;53.040;18.488;2023-05-01T00:58:25;26.45;;;12.35;;
53618;SDS011;68717;53.040;18.488;2023-05-01T00:58:38;25.33;;;12.63;;
53618;SDS011;68717;53.040;18.488;2023-05-01T00:58:51;24.63;;;12.68;;
53618;SDS011;68717;53.040;18.488;2023-05-01T00:59:06;24.42;;;12.68;;
53618;SDS011;68717;53.040;18.488;2023-05-01T00:59:19;24.77;;;12.57;;
53618;SDS011;68717;53.040;18.488;2023-05-01T00:59:32;24.00;;;12.48;;
53618;SDS011;68717;53.040;18.488;2023-05-01T00:59:44;25.20;;;12.40;;
53618;SDS011;68717;53.040;18.488;2023-05-01T00:59:57;25.08;;;12.20;;
53618;SDS011;68717;53.040;18.488;2023-05-01T01:00:10;24.17;;;11.95;;
53618;SDS011;68717;53.040;18.488;2023-05-01T01:00:25;23.00;;;11.63;;
53618;SDS011;68717;53.040;18.488;2023-05-01T01:00:37;23.48;;;11.60;;
53618;SDS011;68717;53.040;18.488;2023-05-01T01:00:50;23.08;;;11.43;;
53618;SDS011;68717;53.040;18.488;2023-05-01T01:01:03;25.00;;;11.48;;
53618;SDS011;68717;53.040;18.488;2023-05-01T01:01:17;24.50;;;11.70;;
53618;SDS011;68717;53.040;18.488;2023-05-01T01:01:30;25.58;;;12.20;;
53618;SDS011;68717;53.040;18.488;2023-05-01T01:01:45;25.27;;;11.98;;
53618;SDS011;68717;53.040;18.488;2023-05-01T01:01:58;22.17;;;11.50;;
53618;SDS011;68717;53.040;18.488;2023-05-01T01:02:11;21.55;;;11.23;;
53618;SDS011;68717;53.040;18.488;2023-05-01T01:02:24;24.65;;;11.70;;
53618;SDS011;68717;53.040;18.488;2023-05-01T01:02:39;27.45;;;12.05;;
53618;SDS011;68717;53.040;18.488;2023-05-01T01:02:52;25.20;;;11.80;;
53618;SDS011;68717;53.040;18.488;2023-05-01T01:03:06;23.15;;;11.80;;
53618;SDS011;68717;53.040;18.488;2023-05-01T01:03:19;22.23;;;11.07;;
53618;SDS011;68717;53.040;18.488;2023-05-01T01:03:32;22.38;;;10.85;;
53618;SDS011;68717;53.040;18.488;2023-05-01T01:03:44;21.23;;;10.73;;
53618;SDS011;68717;53.040;18.488;2023-05-01T01:03:57;23.13;;;11.00;;
53618;SDS011;68717;53.040;18.488;2023-05-01T01:04:09;24.42;;;11.43;;
53618;SDS011;68717;53.040;18.488;2023-05-01T01:04:23;23.95;;;11.20;;
53618;SDS011;68717;53.040;18.488;2023-05-01T01:04:37;22.13;;;11.05;;
53618;SDS011;68717;53.040;18.488;2023-05-01T01:04:49;22.40;;;10.98;;
53618;SDS011;68717;53.040;18.488;2023-05-01T01:05:02;20.83;;;10.40;;
53618;SDS011;68717;53.040;18.488;2023-05-01T01:05:16;20.88;;;10.43;;
53618;SDS011;68717;53.040;18.488;2023-05-01T01:05:29;21.02;;;10.77;;
53618;SDS011;68717;53.040;18.488;2023-05-01T01:05:50;22.58;;;11.10;;
53618;SDS011;68717;53.040;18.488;2023-05-01T01:06:11;22.35;;;11.18;;
53618;SDS011;68717;53.040;18.488;2023-05-01T01:06:33;21.67;;;10.77;;
53618;SDS011;68717;53.040;18.488;2023-05-01T01:06:55;22.92;;;11.00;;
53618;SDS011;68717;53.040;18.488;2023-05-01T01:07:16;23.42;;;11.32;;
53618;SDS011;68717;53.040;18.488;2023-05-01T01:07:35;23.42;;;10.90;;
53618;SDS011;68717;53.040;18.488;2023-05-01T01:07:57;22.85;;;10.65;;
53618;SDS011;68717;53.040;18.488;2023-05-01T01:08:18;21.30;;;10.90;;
53618;SDS011;68717;53.040;18.488;2023-05-01T01:08:37;22.10;;;11.07;;
53618;SDS011;68717;53.040;18.488;2023-05-01T01:08:54;22.45;;;11.45;;
53618;SDS011;68717;53.040;18.488;2023-05-01T01:09:22;22.23;;;11.57;;
53618;SDS011;68717;53.040;18.488;2023-05-01T01:09:47;22.83;;;11.25;;
53618;SDS011;68717;53.040;18.488;2023-05-01T01:10:11;23.60;;;10.77;;
53618;SDS011;68717;53.040;18.488;2023-05-01T01:10:34;21.05;;;11.38;;
53618;SDS011;68717;53.040;18.488;2023-05-01T01:10:53;22.42;;;11.43;;
53618;SDS011;68717;53.040;18.488;2023-05-01T01:11:13;22.17;;;11.52;;
53618;SDS011;68717;53.040;18.488;2023-05-01T01:11:37;22.40;;;11.30;;
53618;SDS011;68717;53.040;18.488;2023-05-01T01:11:56;22.17;;;10.93;;
53618;SDS011;68717;53.040;18.488;2023-05-01T01:12:19;23.33;;;11.35;;
53618;SDS011;68717;53.040;18.488;2023-05-01T01:12:45;21.60;;;11.30;;
53618;SDS011;68717;53.040;18.488;2023-05-01T01:13:07;22.42;;;11.32;;
53618;SDS011;68717;53.040;18.488;2023-05-01T01:13:26;22.58;;;11.52;;
53618;SDS011;68717;53.040;18.488;2023-05-01T01:13:42;21.80;;;11.40;;
53618;SDS011;68717;53.040;18.488;2023-05-01T01:14:05;22.38;;;11.10;;
53618;SDS011;68717;53.040;18.488;2023-05-01T01:14:24;22.55;;;10.95;;
53618;SDS011;68717;53.040;18.488;2023-05-01T01:14:45;21.92;;;11.13;;
53618;SDS011;68717;53.040;18.488;2023-05-01T01:15:05;23.88;;;11.02;;
53618;SDS011;68717;53.040;18.488;2023-05-01T01:15:27;21.40;;;10.68;;
53618;SDS011;68717;53.040;18.488;2023-05-01T01:15:48;20.38;;;10.68;;
53618;SDS011;68717;53.040;18.488;2023-05-01T01:16:08;20.55;;;10.48;;
53618;SDS011;68717;53.040;18.488;2023-05-01T01:16:28;19.83;;;10.35;;
53618;SDS011;68717;53.040;18.488;2023-05-01T01:16:45;20.50;;;10.30;;
53618;SDS011;68717;53.040;18.488;2023-05-01T01:17:08;20.10;;;10.57;;
53618;SDS011;68717;53.040;18.488;2023-05-01T01:17:26;22.38;;;10.80;;
53618;SDS011;68717;53.040;18.488;2023-05-01T01:17:44;22.38;;;10.93;;
53618;SDS011;68717;53.040;18.488;2023-05-01T01:18:06;21.45;;;10.65;;
53618;SDS011;68717;53.040;18.488;2023-05-01T01:18:27;22.17;;;10.75;;
53618;SDS011;68717;53.040;18.488;2023-05-01T01:18:47;20.58;;;10.73;;
53618;SDS011;68717;53.040;18.488;2023-05-01T01:19:05;19.65;;;10.35;;
53618;SDS011;68717;53.040;18.488;2023-05-01T01:19:39;19.92;;;10.50;;
53618;SDS011;68717;53.040;18.488;2023-05-01T01:20:23;21.40;;;10.35;;
53618;SDS011;68717;53.040;18.488;2023-05-01T01:20:43;22.42;;;10.05;;
53618;SDS011;68717;53.040;18.488;2023-05-01T01:21:03;21.98;;;9.85;;
53618;SDS011;68717;53.040;18.488;2023-05-01T01:21:22;20.13;;;10.07;;
53618;SDS011;68717;53.040;18.488;2023-05-01T01:21:40;20.80;;;9.63;;
53618;SDS011;68717;53.040;18.488;2023-05-01T01:21:57;19.45;;;9.60;;
53618;SDS011;68717;53.040;18.488;2023-05-01T01:22:19;19.17;;;9.85;;
53618;SDS011;68717;53.040;18.488;2023-05-01T01:22:34;19.83;;;9.95;;
53618;SDS011;68717;53.040;18.488;2023-05-01T01:22:52;20.48;;;10.20;;
53618;SDS011;68717;53.040;18.488;2023-05-01T01:23:20;19.65;;;9.73;;
53618;SDS011;68717;53.040;18.488;2023-05-01T01:23:52;19.15;;;10.10;;
53618;SDS011;68717;53.040;18.488;2023-05-01T01:24:25;19.15;;;9.98;;